createdAt,value
2018-12-25T00:00:42.612Z,0
2018-12-25T00:01:52.566Z,0
2018-12-25T00:03:02.521Z,0
2018-12-25T00:04:12.502Z,0
2018-12-25T00:05:22.508Z,0
2018-12-25T00:06:32.207Z,0
2018-12-25T00:07:41.642Z,0
2018-12-25T00:08:51.321Z,0
2018-12-25T00:10:00.760Z,0
2018-12-25T00:11:10.559Z,0
2018-12-25T00:12:20.260Z,0
2018-12-25T00:13:29.952Z,0
2018-12-25T00:14:40.009Z,0
2018-12-25T00:15:49.695Z,0
2018-12-25T00:16:59.653Z,0
2018-12-25T00:18:08.832Z,0
2018-12-25T00:19:18.793Z,0
2018-12-25T00:20:28.483Z,0
2018-12-25T00:21:38.403Z,0
2018-12-25T00:22:48.341Z,0
2018-12-25T00:23:58.019Z,0
2018-12-25T00:25:08.035Z,0
2018-12-25T00:26:17.993Z,0
2018-12-25T00:27:27.784Z,0
2018-12-25T00:28:37.227Z,0
2018-12-25T00:29:47.170Z,0
2018-12-25T00:30:56.852Z,0
2018-12-25T00:32:06.811Z,0
2018-12-25T00:33:16.747Z,0
2018-12-25T00:34:26.433Z,0
2018-12-25T00:35:36.367Z,0
2018-12-25T00:36:46.304Z,0
2018-12-25T00:37:55.993Z,0
2018-12-25T00:39:05.929Z,0
2018-12-25T00:40:15.861Z,0
2018-12-25T00:41:25.892Z,0
2018-12-25T00:42:35.593Z,0
2018-12-25T00:43:45.527Z,0
2018-12-25T00:44:55.209Z,0
2018-12-25T00:46:05.135Z,0
2018-12-25T00:47:14.581Z,0
2018-12-25T00:48:24.350Z,0
2018-12-25T00:49:34.032Z,0
2018-12-25T00:50:43.723Z,0
2018-12-25T00:51:53.662Z,0
2018-12-25T00:53:03.097Z,0
2018-12-25T00:54:12.791Z,0
2018-12-25T00:55:22.218Z,0
2018-12-25T00:56:31.909Z,0
2018-12-25T00:57:41.853Z,0
2018-12-25T00:58:51.281Z,0
2018-12-25T01:00:01.315Z,0
2018-12-25T01:01:11.011Z,0
2018-12-25T01:02:20.953Z,0
2018-12-25T01:03:30.895Z,0
2018-12-25T01:04:40.365Z,0
2018-12-25T01:05:50.173Z,0
2018-12-25T01:06:59.973Z,0
2018-12-25T01:08:09.419Z,0
2018-12-25T01:09:19.120Z,0
2018-12-25T01:10:29.056Z,0
2018-12-25T01:11:38.513Z,0
2018-12-25T01:12:48.450Z,0
2018-12-25T01:13:58.390Z,0
2018-12-25T01:15:08.325Z,0
2018-12-25T01:16:18.260Z,0
2018-12-25T01:17:28.205Z,0
2018-12-25T01:18:37.896Z,0
2018-12-25T01:19:47.590Z,0
2018-12-25T01:20:57.542Z,0
2018-12-25T01:22:07.499Z,0
2018-12-25T01:23:17.448Z,0
2018-12-25T01:24:27.140Z,0
2018-12-25T01:25:37.075Z,0
2018-12-25T01:26:46.810Z,0
2018-12-25T01:27:56.550Z,0
2018-12-25T01:29:06.228Z,0
2018-12-25T01:30:16.251Z,0
2018-12-25T01:31:26.197Z,0
2018-12-25T01:32:36.162Z,0
2018-12-25T01:33:45.613Z,0
2018-12-25T01:34:55.565Z,0
2018-12-25T01:36:05.259Z,0
2018-12-25T01:37:15.187Z,0
2018-12-25T01:38:24.869Z,0
2018-12-25T01:39:34.317Z,0
2018-12-25T01:40:43.758Z,0
2018-12-25T01:41:53.713Z,0
2018-12-25T01:43:03.651Z,0
2018-12-25T01:44:13.105Z,0
2018-12-25T01:45:23.045Z,0
2018-12-25T01:46:33.096Z,0
2018-12-25T01:47:43.049Z,0
2018-12-25T01:48:53.003Z,0
2018-12-25T01:50:02.945Z,0
2018-12-25T01:51:12.879Z,0
2018-12-25T01:52:22.566Z,0
2018-12-25T01:53:32.509Z,0
2018-12-25T01:54:42.451Z,0
2018-12-25T01:55:52.392Z,0
2018-12-25T01:57:01.822Z,0
2018-12-25T01:58:11.756Z,0
2018-12-25T01:59:21.700Z,0
2018-12-25T02:00:31.631Z,0
2018-12-25T02:01:41.323Z,0
2018-12-25T02:02:51.270Z,0
2018-12-25T02:04:00.954Z,0
2018-12-25T02:05:10.414Z,0
2018-12-25T02:06:20.355Z,0
2018-12-25T02:07:30.284Z,0
2018-12-25T02:08:40.227Z,0
2018-12-25T02:09:50.170Z,0
2018-12-25T02:11:01.978Z,0
2018-12-25T02:12:12.070Z,0
2018-12-25T02:13:22.010Z,0
2018-12-25T02:14:31.757Z,0
2018-12-25T02:15:41.712Z,0
2018-12-25T02:16:51.667Z,0
2018-12-25T02:18:01.372Z,0
2018-12-25T02:19:11.504Z,0
2018-12-25T02:20:21.181Z,0
2018-12-25T02:21:31.122Z,0
2018-12-25T02:22:41.057Z,0
2018-12-25T02:23:50.994Z,0
2018-12-25T02:25:01.018Z,0
2018-12-25T02:26:10.945Z,0
2018-12-25T02:27:20.637Z,0
2018-12-25T02:28:30.576Z,0
2018-12-25T02:29:40.524Z,0
2018-12-25T02:30:50.554Z,0
2018-12-25T02:32:00.497Z,0
2018-12-25T02:33:10.206Z,0
2018-12-25T02:34:19.646Z,0
2018-12-25T02:35:29.331Z,0
2018-12-25T02:36:38.841Z,0
2018-12-25T02:37:48.534Z,0
2018-12-25T02:38:58.472Z,0
2018-12-25T02:40:08.416Z,0
2018-12-25T02:41:18.369Z,0
2018-12-25T02:42:28.071Z,0
2018-12-25T02:43:38.014Z,0
2018-12-25T02:44:48.067Z,0
2018-12-25T02:45:57.760Z,0
2018-12-25T02:47:07.729Z,0
2018-12-25T02:48:17.429Z,0
2018-12-25T02:49:27.374Z,0
2018-12-25T02:50:37.313Z,0
2018-12-25T02:51:47.276Z,0
2018-12-25T02:52:57.234Z,0
2018-12-25T02:54:07.188Z,0
2018-12-25T02:55:17.143Z,0
2018-12-25T02:56:27.242Z,0
2018-12-25T02:57:37.212Z,0
2018-12-25T02:58:47.176Z,0
2018-12-25T02:59:57.145Z,0
2018-12-25T03:01:07.095Z,0
2018-12-25T03:02:16.848Z,0
2018-12-25T03:03:26.791Z,0
2018-12-25T03:04:36.737Z,0
2018-12-25T03:05:46.700Z,0
2018-12-25T03:06:56.400Z,0
2018-12-25T03:08:06.346Z,0
2018-12-25T03:09:16.511Z,0
2018-12-25T03:10:26.509Z,0
2018-12-25T03:11:36.459Z,0
2018-12-25T03:12:46.148Z,0
2018-12-25T03:13:55.847Z,0
2018-12-25T03:15:05.553Z,0
2018-12-25T03:16:15.505Z,0
2018-12-25T03:17:25.187Z,0
2018-12-25T03:18:34.622Z,0
2018-12-25T03:19:44.580Z,0
2018-12-25T03:20:54.523Z,0
2018-12-25T03:22:04.471Z,0
2018-12-25T03:23:13.915Z,0
2018-12-25T03:24:23.612Z,0
2018-12-25T03:25:33.690Z,0
2018-12-25T03:26:43.389Z,0
2018-12-25T03:27:53.340Z,0
2018-12-25T03:29:03.042Z,0
2018-12-25T03:30:12.994Z,0
2018-12-25T03:31:23.125Z,0
2018-12-25T03:32:33.110Z,0
2018-12-25T03:33:42.822Z,0
2018-12-25T03:34:52.511Z,0
2018-12-25T03:36:02.229Z,0
2018-12-25T03:37:11.681Z,0
2018-12-25T03:38:20.904Z,0
2018-12-25T03:39:30.859Z,0
2018-12-25T03:40:40.853Z,0
2018-12-25T03:41:50.555Z,0
2018-12-25T03:43:00.523Z,0
2018-12-25T03:44:10.493Z,0
2018-12-25T03:45:20.441Z,0
2018-12-25T03:46:30.148Z,0
2018-12-25T03:47:39.850Z,0
2018-12-25T03:48:49.795Z,0
2018-12-25T03:50:09.986Z,0
2018-12-25T03:51:20.418Z,0
2018-12-25T03:52:30.383Z,0
2018-12-25T03:53:40.343Z,0
2018-12-25T03:54:50.297Z,0
2018-12-25T03:56:00.272Z,0
2018-12-25T03:57:10.112Z,0
2018-12-25T03:58:19.552Z,0
2018-12-25T03:59:29.243Z,0
2018-12-25T04:00:39.195Z,0
2018-12-25T04:01:49.140Z,0
2018-12-25T04:02:59.098Z,0
2018-12-25T04:04:09.064Z,0
2018-12-25T04:05:19.028Z,0
2018-12-25T04:06:28.786Z,0
2018-12-25T04:07:38.740Z,0
2018-12-25T04:08:48.779Z,0
2018-12-25T04:09:58.463Z,0
2018-12-25T04:11:08.167Z,0
2018-12-25T04:12:17.626Z,0
2018-12-25T04:13:27.353Z,0
2018-12-25T04:14:37.082Z,0
2018-12-25T04:15:47.016Z,0
2018-12-25T04:16:56.713Z,0
2018-12-25T04:18:06.421Z,0
2018-12-25T04:19:16.133Z,0
2018-12-25T04:20:27.189Z,0
2018-12-25T04:21:36.877Z,0
2018-12-25T04:22:46.575Z,0
2018-12-25T04:23:56.538Z,0
2018-12-25T04:25:06.536Z,0
2018-12-25T04:26:16.248Z,0
2018-12-25T04:27:25.698Z,0
2018-12-25T04:28:35.390Z,0
2018-12-25T04:29:45.338Z,0
2018-12-25T04:30:55.287Z,0
2018-12-25T04:32:05.237Z,0
2018-12-25T04:33:15.165Z,0
2018-12-25T04:34:25.107Z,0
2018-12-25T04:35:35.086Z,0
2018-12-25T04:36:45.047Z,0
2018-12-25T04:37:54.494Z,0
2018-12-25T04:39:04.280Z,0
2018-12-25T04:40:14.225Z,0
2018-12-25T04:41:23.914Z,0
2018-12-25T04:42:33.641Z,0
2018-12-25T04:43:43.598Z,0
2018-12-25T04:44:53.030Z,0
2018-12-25T04:46:02.972Z,0
2018-12-25T04:47:12.686Z,0
2018-12-25T04:48:22.631Z,0
2018-12-25T04:49:32.563Z,0
2018-12-25T04:50:42.503Z,0
2018-12-25T04:51:52.438Z,0
2018-12-25T04:53:02.379Z,0
2018-12-25T04:54:12.334Z,0
2018-12-25T04:55:22.286Z,0
2018-12-25T04:56:32.221Z,0
2018-12-25T04:57:42.166Z,0
2018-12-25T04:58:52.100Z,0
2018-12-25T05:00:02.042Z,0
2018-12-25T05:01:11.731Z,0
2018-12-25T05:02:21.413Z,0
2018-12-25T05:03:31.104Z,0
2018-12-25T05:04:40.554Z,0
2018-12-25T05:05:50.255Z,0
2018-12-25T05:07:00.216Z,0
2018-12-25T05:08:10.203Z,0
2018-12-25T05:09:20.148Z,0
2018-12-25T05:10:30.078Z,0
2018-12-25T05:11:40.027Z,0
2018-12-25T05:12:49.718Z,0
2018-12-25T05:13:59.674Z,0
2018-12-25T05:15:09.594Z,0
2018-12-25T05:16:19.285Z,0
2018-12-25T05:17:29.230Z,0
2018-12-25T05:18:39.168Z,0
2018-12-25T05:19:49.111Z,0
2018-12-25T05:20:59.044Z,0
2018-12-25T05:22:08.982Z,0
2018-12-25T05:23:18.422Z,0
2018-12-25T05:24:28.386Z,0
2018-12-25T05:25:38.068Z,0
2018-12-25T05:26:47.757Z,0
2018-12-25T05:27:56.953Z,0
2018-12-25T05:29:06.884Z,0
2018-12-25T05:30:16.585Z,0
2018-12-25T05:31:26.036Z,0
2018-12-25T05:32:35.980Z,0
2018-12-25T05:33:45.930Z,0
2018-12-25T05:34:55.883Z,0
2018-12-25T05:36:05.328Z,0
2018-12-25T05:37:15.269Z,0
2018-12-25T05:38:25.211Z,0
2018-12-25T05:39:35.142Z,0
2018-12-25T05:40:45.072Z,0
2018-12-25T05:41:55.024Z,0
2018-12-25T05:43:04.976Z,0
2018-12-25T05:44:14.911Z,0
2018-12-25T05:45:24.846Z,0
2018-12-25T05:46:34.542Z,0
2018-12-25T05:47:44.232Z,0
2018-12-25T05:48:54.173Z,0
2018-12-25T05:50:04.118Z,0
2018-12-25T05:51:14.062Z,0
2018-12-25T05:52:23.759Z,0
2018-12-25T05:53:33.700Z,0
2018-12-25T05:54:43.636Z,0
2018-12-25T05:55:53.583Z,0
2018-12-25T05:57:03.276Z,0
2018-12-25T05:58:13.218Z,0
2018-12-25T05:59:23.179Z,0
2018-12-25T06:00:32.615Z,0
2018-12-25T06:01:42.545Z,0
2018-12-25T06:02:51.980Z,0
2018-12-25T06:04:01.926Z,0
2018-12-25T06:05:11.965Z,0
2018-12-25T06:06:21.896Z,0
2018-12-25T06:07:31.584Z,0
2018-12-25T06:08:42.705Z,0
2018-12-25T06:09:52.558Z,0
2018-12-25T06:11:02.258Z,0
2018-12-25T06:12:11.958Z,0
2018-12-25T06:13:21.893Z,0
2018-12-25T06:14:31.576Z,0
2018-12-25T06:15:41.502Z,0
2018-12-25T06:16:51.198Z,0
2018-12-25T06:18:01.370Z,0
2018-12-25T06:19:11.056Z,0
2018-12-25T06:20:20.597Z,0
2018-12-25T06:21:30.532Z,0
2018-12-25T06:22:40.462Z,0
2018-12-25T06:23:50.386Z,0
2018-12-25T06:24:59.830Z,0
2018-12-25T06:26:09.526Z,0
2018-12-25T06:27:19.222Z,0
2018-12-25T06:28:29.276Z,0
2018-12-25T06:29:38.956Z,0
2018-12-25T06:30:48.648Z,0
2018-12-25T06:31:58.339Z,0
2018-12-25T06:33:07.798Z,0
2018-12-25T06:34:17.472Z,0
2018-12-25T06:35:27.409Z,0
2018-12-25T06:36:37.361Z,0
2018-12-25T06:37:47.297Z,0
2018-12-25T06:38:56.989Z,0
2018-12-25T06:40:06.915Z,0
2018-12-25T06:41:16.840Z,0
2018-12-25T06:42:26.780Z,0
2018-12-25T06:43:36.528Z,0
2018-12-25T06:44:46.473Z,4
2018-12-25T06:45:56.415Z,4
2018-12-25T06:47:06.380Z,4
2018-12-25T06:48:16.313Z,4
2018-12-25T06:49:25.991Z,8
2018-12-25T06:50:35.671Z,8
2018-12-25T06:51:45.367Z,12
2018-12-25T06:52:55.052Z,12
2018-12-25T06:54:04.743Z,12
2018-12-25T06:55:14.434Z,12
2018-12-25T06:56:24.122Z,12
2018-12-25T06:57:34.063Z,16
2018-12-25T06:58:43.746Z,20
2018-12-25T06:59:53.448Z,20
2018-12-25T07:01:03.138Z,24
2018-12-25T07:02:12.586Z,36
2018-12-25T07:03:22.515Z,40
2018-12-25T07:04:32.197Z,44
2018-12-25T07:05:41.875Z,48
2018-12-25T07:06:53.023Z,52
2018-12-25T07:08:02.713Z,64
2018-12-25T07:09:12.651Z,72
2018-12-25T07:10:22.631Z,80
2018-12-25T07:11:32.070Z,92
2018-12-25T07:12:41.995Z,84
2018-12-25T07:13:51.702Z,92
2018-12-25T07:15:01.142Z,108
2018-12-25T07:16:10.589Z,104
2018-12-25T07:17:20.271Z,108
2018-12-25T07:18:29.961Z,112
2018-12-25T07:19:39.903Z,124
2018-12-25T07:20:49.613Z,132
2018-12-25T07:21:59.554Z,140
2018-12-25T07:23:09.494Z,148
2018-12-25T07:24:18.936Z,136
2018-12-25T07:25:28.373Z,140
2018-12-25T07:26:37.817Z,140
2018-12-25T07:27:47.771Z,168
2018-12-25T07:28:57.477Z,196
2018-12-25T07:30:07.183Z,200
2018-12-25T07:31:16.873Z,208
2018-12-25T07:32:26.573Z,224
2018-12-25T07:33:36.582Z,252
2018-12-25T07:34:46.531Z,276
2018-12-25T07:35:56.470Z,324
2018-12-25T07:37:06.427Z,360
2018-12-25T07:38:16.374Z,360
2018-12-25T07:39:25.809Z,388
2018-12-25T07:40:35.768Z,424
2018-12-25T07:41:45.713Z,460
2018-12-25T07:42:55.406Z,436
2018-12-25T07:44:04.857Z,372
2018-12-25T07:45:14.790Z,388
2018-12-25T07:46:24.718Z,524
2018-12-25T07:47:34.417Z,512
2018-12-25T07:48:43.871Z,516
2018-12-25T07:49:53.566Z,508
2018-12-25T07:51:03.504Z,576
2018-12-25T07:52:13.183Z,620
2018-12-25T07:53:23.110Z,664
2018-12-25T07:54:32.796Z,628
2018-12-25T07:55:42.476Z,672
2018-12-25T07:56:52.179Z,648
2018-12-25T07:58:02.096Z,672
2018-12-25T07:59:11.798Z,804
2018-12-25T08:00:22.035Z,916
2018-12-25T08:01:31.977Z,892
2018-12-25T08:02:41.664Z,976
2018-12-25T08:03:51.348Z,1068
2018-12-25T08:05:01.276Z,1124
2018-12-25T08:06:11.248Z,880
2018-12-25T08:07:20.447Z,788
2018-12-25T08:08:30.406Z,856
2018-12-25T08:09:40.114Z,832
2018-12-25T08:10:50.056Z,888
2018-12-25T08:12:01.937Z,936
2018-12-25T08:13:12.001Z,924
2018-12-25T08:14:22.056Z,888
2018-12-25T08:15:31.986Z,928
2018-12-25T08:16:41.668Z,892
2018-12-25T08:17:51.629Z,1052
2018-12-25T08:19:01.315Z,1124
2018-12-25T08:20:11.241Z,1188
2018-12-25T08:21:29.044Z,1180
2018-12-25T08:22:38.925Z,1328
2018-12-25T08:23:48.870Z,1436
2018-12-25T08:24:58.803Z,1564
2018-12-25T08:26:08.989Z,1620
2018-12-25T08:27:18.934Z,1616
2018-12-25T08:28:28.624Z,1560
2018-12-25T08:29:38.566Z,1864
2018-12-25T08:30:48.529Z,2152
2018-12-25T08:31:58.472Z,2492
2018-12-25T08:33:08.411Z,2672
2018-12-25T08:34:18.360Z,2632
2018-12-25T08:35:28.300Z,2556
2018-12-25T08:36:38.982Z,2632
2018-12-25T08:37:48.682Z,2744
2018-12-25T08:38:58.616Z,2764
2018-12-25T08:40:08.305Z,2788
2018-12-25T08:41:17.996Z,2816
2018-12-25T08:42:27.988Z,3160
2018-12-25T08:43:37.928Z,3512
2018-12-25T08:44:47.606Z,3492
2018-12-25T08:45:57.289Z,2908
2018-12-25T08:47:11.568Z,2856
2018-12-25T08:48:21.620Z,2748
2018-12-25T08:49:31.551Z,2992
2018-12-25T08:50:41.492Z,3788
2018-12-25T08:51:51.434Z,4140
2018-12-25T08:53:01.127Z,4264
2018-12-25T08:54:11.055Z,4384
2018-12-25T08:55:21.017Z,4368
2018-12-25T08:56:30.958Z,4036
2018-12-25T08:57:40.665Z,3612
2018-12-25T08:58:50.608Z,3784
2018-12-25T09:00:00.296Z,3732
2018-12-25T09:01:09.994Z,3516
2018-12-25T09:02:19.932Z,3532
2018-12-25T09:03:29.614Z,3968
2018-12-25T09:04:39.312Z,3984
2018-12-25T09:05:49.270Z,4236
2018-12-25T09:06:58.462Z,4596
2018-12-25T09:08:08.400Z,4924
2018-12-25T09:09:18.191Z,4132
2018-12-25T09:10:27.884Z,2708
2018-12-25T09:11:37.823Z,2148
2018-12-25T09:12:47.524Z,2308
2018-12-25T09:13:57.466Z,2224
2018-12-25T09:15:07.410Z,2116
2018-12-25T09:16:17.448Z,2216
2018-12-25T09:17:27.405Z,3104
2018-12-25T09:18:36.848Z,4100
2018-12-25T09:19:46.538Z,3324
2018-12-25T09:20:56.480Z,2408
2018-12-25T09:22:06.450Z,2736
2018-12-25T09:23:16.233Z,3560
2018-12-25T09:24:26.179Z,4420
2018-12-25T09:25:36.121Z,4384
2018-12-25T09:26:46.084Z,4692
2018-12-25T09:27:56.027Z,5692
2018-12-25T09:29:05.972Z,5604
2018-12-25T09:30:15.918Z,5164
2018-12-25T09:31:25.601Z,4008
2018-12-25T09:32:35.295Z,3668
2018-12-25T09:33:45.237Z,4556
2018-12-25T09:34:55.384Z,4328
2018-12-25T09:36:05.337Z,4012
2018-12-25T09:37:15.289Z,5132
2018-12-25T09:38:25.346Z,4172
2018-12-25T09:39:35.099Z,3560
2018-12-25T09:40:45.032Z,3380
2018-12-25T09:41:54.490Z,4648
2018-12-25T09:43:04.435Z,4900
2018-12-25T09:44:14.363Z,5296
2018-12-25T09:45:24.055Z,4332
2018-12-25T09:46:33.761Z,4012
2018-12-25T09:47:43.207Z,5196
2018-12-25T09:48:53.164Z,4040
2018-12-25T09:50:03.125Z,4756
2018-12-25T09:51:12.833Z,6388
2018-12-25T09:52:22.618Z,7196
2018-12-25T09:53:32.314Z,6236
2018-12-25T09:54:42.250Z,4812
2018-12-25T09:55:52.195Z,5936
2018-12-25T09:57:02.131Z,6084
2018-12-25T09:58:12.090Z,6400
2018-12-25T09:59:21.835Z,6652
2018-12-25T10:00:31.512Z,5780
2018-12-25T10:01:41.460Z,4668
2018-12-25T10:02:51.396Z,5904
2018-12-25T10:04:01.333Z,7464
2018-12-25T10:05:11.280Z,8664
2018-12-25T10:06:20.964Z,8360
2018-12-25T10:07:30.911Z,8468
2018-12-25T10:08:40.845Z,7000
2018-12-25T10:09:50.536Z,7512
2018-12-25T10:11:00.475Z,6020
2018-12-25T10:12:10.430Z,7720
2018-12-25T10:13:19.889Z,8788
2018-12-25T10:14:29.580Z,7408
2018-12-25T10:15:39.278Z,5904
2018-12-25T10:16:49.828Z,5292
2018-12-25T10:17:59.728Z,5524
2018-12-25T10:19:09.667Z,4224
2018-12-25T10:20:19.127Z,5176
2018-12-25T10:21:29.168Z,6944
2018-12-25T10:22:38.867Z,7384
2018-12-25T10:23:48.828Z,8440
2018-12-25T10:24:58.614Z,7132
2018-12-25T10:26:08.309Z,5668
2018-12-25T10:27:18.015Z,4972
2018-12-25T10:28:27.713Z,6384
2018-12-25T10:29:37.153Z,8828
2018-12-25T10:30:47.102Z,7688
2018-12-25T10:31:57.042Z,5888
2018-12-25T10:33:06.732Z,6836
2018-12-25T10:34:16.422Z,5428
2018-12-25T10:35:26.393Z,4776
2018-12-25T10:36:36.080Z,5284
2018-12-25T10:37:47.872Z,6612
2018-12-25T10:38:57.810Z,7728
2018-12-25T10:40:07.837Z,7224
2018-12-25T10:41:17.790Z,6236
2018-12-25T10:42:27.466Z,6936
2018-12-25T10:43:37.418Z,7680
2018-12-25T10:44:47.117Z,6644
2018-12-25T10:45:57.053Z,7444
2018-12-25T10:47:07.008Z,7100
2018-12-25T10:48:16.444Z,6796
2018-12-25T10:49:26.399Z,6432
2018-12-25T10:50:36.110Z,7284
2018-12-25T10:51:46.077Z,14840
2018-12-25T10:52:55.863Z,15312
2018-12-25T10:54:05.563Z,10288
2018-12-25T10:55:15.505Z,9272
2018-12-25T10:56:25.467Z,7628
2018-12-25T10:57:35.188Z,6356
2018-12-25T10:58:44.646Z,7088
2018-12-25T10:59:54.573Z,6588
2018-12-25T11:01:04.257Z,5960
2018-12-25T11:02:14.331Z,4900
2018-12-25T11:03:24.268Z,6092
2018-12-25T11:04:33.976Z,6152
2018-12-25T11:05:43.676Z,5888
2018-12-25T11:06:53.609Z,6172
2018-12-25T11:08:03.564Z,7864
2018-12-25T11:09:13.987Z,8804
2018-12-25T11:10:24.125Z,9208
2018-12-25T11:11:33.555Z,8812
2018-12-25T11:12:43.234Z,8492
2018-12-25T11:13:53.180Z,10276
2018-12-25T11:15:03.184Z,8856
2018-12-25T11:16:13.130Z,5712
2018-12-25T11:17:23.078Z,7216
2018-12-25T11:18:32.768Z,7560
2018-12-25T11:19:42.488Z,7844
2018-12-25T11:20:52.438Z,8696
2018-12-25T11:22:02.406Z,9288
2018-12-25T11:23:12.115Z,9404
2018-12-25T11:24:22.086Z,8652
2018-12-25T11:25:32.035Z,9236
2018-12-25T11:26:41.487Z,12020
2018-12-25T11:27:51.447Z,16648
2018-12-25T11:29:01.166Z,15644
2018-12-25T11:30:10.864Z,13668
2018-12-25T11:31:20.547Z,13904
2018-12-25T11:32:30.245Z,12088
2018-12-25T11:33:39.680Z,9740
2018-12-25T11:34:49.124Z,12060
2018-12-25T11:35:59.170Z,14124
2018-12-25T11:37:08.620Z,13740
2018-12-25T11:38:18.549Z,20960
2018-12-25T11:39:28.595Z,8076
2018-12-25T11:40:38.537Z,7392
2018-12-25T11:41:48.480Z,6936
2018-12-25T11:42:58.183Z,6644
2018-12-25T11:44:08.129Z,5924
2018-12-25T11:45:17.827Z,5184
2018-12-25T11:46:27.760Z,4720
2018-12-25T11:47:37.703Z,5964
2018-12-25T11:48:47.401Z,5932
2018-12-25T11:49:56.867Z,6300
2018-12-25T11:51:06.312Z,7140
2018-12-25T11:52:16.263Z,7524
2018-12-25T11:53:25.959Z,7600
2018-12-25T11:54:35.407Z,7384
2018-12-25T11:55:45.351Z,7116
2018-12-25T11:56:55.044Z,7240
2018-12-25T11:58:04.768Z,7064
2018-12-25T11:59:14.804Z,6072
2018-12-25T12:00:24.241Z,4908
2018-12-25T12:01:33.931Z,4692
2018-12-25T12:02:43.635Z,5164
2018-12-25T12:03:53.335Z,6248
2018-12-25T12:05:03.283Z,7744
2018-12-25T12:06:13.236Z,7748
2018-12-25T12:07:22.927Z,7856
2018-12-25T12:08:32.635Z,8172
2018-12-25T12:09:42.573Z,8204
2018-12-25T12:10:52.281Z,7788
2018-12-25T12:12:01.989Z,7584
2018-12-25T12:13:11.675Z,7044
2018-12-25T12:14:21.131Z,7056
2018-12-25T12:15:31.082Z,7140
2018-12-25T12:16:41.023Z,7996
2018-12-25T12:17:50.971Z,8688
2018-12-25T12:19:00.979Z,9132
2018-12-25T12:20:10.911Z,9016
2018-12-25T12:21:21.199Z,8836
2018-12-25T12:22:39.287Z,8552
2018-12-25T12:23:49.256Z,8664
2018-12-25T12:24:58.957Z,8492
2018-12-25T12:26:08.924Z,7832
2018-12-25T12:27:18.869Z,7832
2018-12-25T12:28:28.820Z,7408
2018-12-25T12:29:38.775Z,7104
2018-12-25T12:30:48.483Z,6968
2018-12-25T12:31:58.424Z,6704
2018-12-25T12:33:08.125Z,6156
2018-12-25T12:34:18.077Z,5664
2018-12-25T12:35:28.025Z,5256
2018-12-25T12:36:37.715Z,5084
2018-12-25T12:37:47.668Z,5088
2018-12-25T12:38:57.742Z,5416
2018-12-25T12:40:07.757Z,5708
2018-12-25T12:41:17.712Z,5684
2018-12-25T12:42:27.157Z,5536
2018-12-25T12:43:37.104Z,5272
2018-12-25T12:44:47.041Z,5352
2018-12-25T12:45:56.731Z,5652
2018-12-25T12:47:06.438Z,5156
2018-12-25T12:48:16.165Z,5020
2018-12-25T12:49:25.636Z,5000
2018-12-25T12:50:35.083Z,5092
2018-12-25T12:51:45.037Z,6064
2018-12-25T12:52:54.983Z,6688
2018-12-25T12:54:04.919Z,6988
2018-12-25T12:55:14.887Z,7196
2018-12-25T12:56:24.815Z,6988
2018-12-25T12:57:36.592Z,7400
2018-12-25T12:58:46.678Z,6472
2018-12-25T12:59:56.649Z,5072
2018-12-25T13:01:06.599Z,4256
2018-12-25T13:02:16.297Z,3764
2018-12-25T13:03:26.249Z,3556
2018-12-25T13:04:36.331Z,3412
2018-12-25T13:05:46.269Z,3424
2018-12-25T13:06:56.221Z,3632
2018-12-25T13:08:06.164Z,3764
2018-12-25T13:09:15.865Z,3700
2018-12-25T13:10:25.808Z,3404
2018-12-25T13:11:35.500Z,3280
2018-12-25T13:12:45.205Z,3428
2018-12-25T13:13:54.903Z,3316
2018-12-25T13:15:04.619Z,3116
2018-12-25T13:16:14.370Z,3320
2018-12-25T13:17:24.312Z,3324
2018-12-25T13:18:34.241Z,3348
2018-12-25T13:19:44.191Z,3628
2018-12-25T13:20:54.123Z,3736
2018-12-25T13:22:03.834Z,3284
2018-12-25T13:23:13.781Z,2860
2018-12-25T13:24:24.569Z,2512
2018-12-25T13:25:34.630Z,2332
2018-12-25T13:26:44.333Z,2372
2018-12-25T13:27:54.275Z,2508
2018-12-25T13:29:04.227Z,2472
2018-12-25T13:30:14.163Z,2352
2018-12-25T13:31:23.887Z,2376
2018-12-25T13:32:33.838Z,2392
2018-12-25T13:33:43.785Z,2184
2018-12-25T13:34:53.716Z,1836
2018-12-25T13:36:05.208Z,1676
2018-12-25T13:37:14.909Z,1824
2018-12-25T13:38:24.643Z,1976
2018-12-25T13:39:34.581Z,1896
2018-12-25T13:40:44.274Z,1692
2018-12-25T13:41:54.222Z,1672
2018-12-25T13:43:03.916Z,1632
2018-12-25T13:44:13.611Z,1456
2018-12-25T13:45:23.562Z,1356
2018-12-25T13:46:33.010Z,1228
2018-12-25T13:47:42.947Z,1208
2018-12-25T13:48:52.889Z,1088
2018-12-25T13:50:02.659Z,1024
2018-12-25T13:51:12.342Z,1012
2018-12-25T13:52:22.028Z,1052
2018-12-25T13:53:31.964Z,1268
2018-12-25T13:54:41.650Z,1336
2018-12-25T13:55:51.340Z,1164
2018-12-25T13:57:01.285Z,1028
2018-12-25T13:58:11.240Z,844
2018-12-25T13:59:21.184Z,800
2018-12-25T14:00:31.122Z,848
2018-12-25T14:01:41.068Z,788
2018-12-25T14:02:50.769Z,892
2018-12-25T14:04:00.712Z,976
2018-12-25T14:05:10.689Z,928
2018-12-25T14:06:20.368Z,800
2018-12-25T14:07:30.309Z,716
2018-12-25T14:08:40.258Z,672
2018-12-25T14:09:49.990Z,692
2018-12-25T14:10:59.923Z,764
2018-12-25T14:12:09.857Z,832
2018-12-25T14:13:19.550Z,724
2018-12-25T14:14:29.255Z,536
2018-12-25T14:15:38.975Z,532
2018-12-25T14:16:48.666Z,540
2018-12-25T14:17:58.603Z,544
2018-12-25T14:19:08.040Z,560
2018-12-25T14:20:18.002Z,604
2018-12-25T14:21:27.702Z,576
2018-12-25T14:22:37.397Z,488
2018-12-25T14:23:47.118Z,468
2018-12-25T14:24:56.819Z,372
2018-12-25T14:26:06.516Z,376
2018-12-25T14:27:16.208Z,376
2018-12-25T14:28:25.902Z,400
2018-12-25T14:29:35.859Z,392
2018-12-25T14:30:45.580Z,340
2018-12-25T14:31:55.526Z,320
2018-12-25T14:33:05.474Z,360
2018-12-25T14:34:16.532Z,416
2018-12-25T14:35:26.306Z,424
2018-12-25T14:36:36.256Z,392
2018-12-25T14:37:46.202Z,344
2018-12-25T14:38:56.162Z,304
2018-12-25T14:40:06.121Z,280
2018-12-25T14:41:16.430Z,276
2018-12-25T14:42:26.124Z,284
2018-12-25T14:43:36.122Z,256
2018-12-25T14:44:46.078Z,288
2018-12-25T14:45:56.020Z,332
2018-12-25T14:47:05.961Z,332
2018-12-25T14:48:15.424Z,316
2018-12-25T14:49:25.548Z,284
2018-12-25T14:50:35.482Z,240
2018-12-25T14:51:45.420Z,212
2018-12-25T14:52:55.362Z,176
2018-12-25T14:54:05.079Z,152
2018-12-25T14:55:15.074Z,152
2018-12-25T14:56:25.010Z,148
2018-12-25T14:57:34.964Z,156
2018-12-25T14:58:44.908Z,148
2018-12-25T14:59:54.843Z,132
2018-12-25T15:01:04.782Z,132
2018-12-25T15:02:14.732Z,112
2018-12-25T15:03:24.440Z,104
2018-12-25T15:04:34.375Z,88
2018-12-25T15:05:44.316Z,60
2018-12-25T15:06:54.264Z,44
2018-12-25T15:08:04.207Z,36
2018-12-25T15:09:14.143Z,36
2018-12-25T15:10:23.841Z,36
2018-12-25T15:11:33.766Z,28
2018-12-25T15:12:42.962Z,24
2018-12-25T15:13:52.900Z,24
2018-12-25T15:15:02.701Z,20
2018-12-25T15:16:12.645Z,16
2018-12-25T15:17:22.330Z,12
2018-12-25T15:18:32.274Z,12
2018-12-25T15:19:41.720Z,12
2018-12-25T15:20:51.402Z,12
2018-12-25T15:22:01.112Z,8
2018-12-25T15:23:11.054Z,8
2018-12-25T15:24:20.994Z,4
2018-12-25T15:25:30.710Z,4
2018-12-25T15:26:40.673Z,4
2018-12-25T15:27:50.631Z,4
2018-12-25T15:29:00.608Z,4
2018-12-25T15:30:10.571Z,4
2018-12-25T15:31:19.767Z,0
2018-12-25T15:32:29.709Z,0
2018-12-25T15:33:39.160Z,4
2018-12-25T15:34:48.870Z,4
2018-12-25T15:35:58.550Z,0
2018-12-25T15:37:09.981Z,0
2018-12-25T15:38:19.681Z,0
2018-12-25T15:39:29.651Z,0
2018-12-25T15:40:39.591Z,0
2018-12-25T15:41:49.294Z,0
2018-12-25T15:42:58.991Z,0
2018-12-25T15:44:08.694Z,0
2018-12-25T15:45:18.637Z,0
2018-12-25T15:46:28.324Z,0
2018-12-25T15:47:38.267Z,0
2018-12-25T15:48:48.208Z,0
2018-12-25T15:49:58.146Z,0
2018-12-25T15:51:08.110Z,0
2018-12-25T15:52:17.795Z,0
2018-12-25T15:53:27.512Z,0
2018-12-25T15:54:44.612Z,0
2018-12-25T15:55:54.044Z,0
2018-12-25T15:57:03.753Z,0
2018-12-25T15:58:13.688Z,0
2018-12-25T15:59:23.636Z,0
2018-12-25T16:00:34.468Z,0
2018-12-25T16:01:44.413Z,0
2018-12-25T16:02:54.363Z,0
2018-12-25T16:04:04.048Z,0
2018-12-25T16:05:14.003Z,0
2018-12-25T16:06:23.938Z,0
2018-12-25T16:07:33.887Z,0
2018-12-25T16:08:43.821Z,0
2018-12-25T16:09:53.758Z,0
2018-12-25T16:11:03.700Z,0
2018-12-25T16:12:13.654Z,0
2018-12-25T16:13:23.104Z,0
2018-12-25T16:14:33.046Z,0
2018-12-25T16:15:42.744Z,0
2018-12-25T16:16:52.784Z,0
2018-12-25T16:18:02.728Z,0
2018-12-25T16:19:12.456Z,0
2018-12-25T16:20:22.413Z,0
2018-12-25T16:21:32.470Z,0
2018-12-25T16:22:42.403Z,0
2018-12-25T16:23:53.038Z,0